Terminal Aerodrome Forecast
Issued by NWS Bismarck, ND

Home | Current Version | Previous Version | Graphics & Text | Print | Product List | Glossary On
Versions: 1 2 3 4 5 6 7 8 9 10 11 12 13 14 15 16 17 18
000
FTUS43 KBIS 291132
TAFISN
TAF
KISN 291132Z 2912/3012 22005KT 3SM FU BKN035
      TEMPO 2912/2914 2SM FU OVC025
     FM291500 18008KT 5SM FU FEW250
     FM291800 19015G21KT P6SM FEW250
     FM300300 14006KT P6SM FEW250=

USA.gov is the U.S. government's official web portal to all federal, state and local government web resources and services.